sensor_id;sensor_type;location;lat;lon;timestamp;P1;P2;P0
49778;PMS5003;36217;60.232;24.776;2022-12-18T00:01:19;12;12;
49778;PMS5003;36217;60.232;24.776;2022-12-18T00:03:48;8;6;
49778;PMS5003;36217;60.232;24.776;2022-12-18T00:06:15;8;6;
49778;PMS5003;36217;60.232;24.776;2022-12-18T00:08:43;13;9;
49778;PMS5003;36217;60.232;24.776;2022-12-18T00:11:11;5;5;
49778;PMS5003;36217;60.232;24.776;2022-12-18T00:13:40;9;8;
49778;PMS5003;36217;60.232;24.776;2022-12-18T00:16:09;6;5;
49778;PMS5003;36217;60.232;24.776;2022-12-18T00:18:38;8;8;
49778;PMS5003;36217;60.232;24.776;2022-12-18T00:21:06;5;5;
49778;PMS5003;36217;60.232;24.776;2022-12-18T00:23:36;8;6;
49778;PMS5003;36217;60.232;24.776;2022-12-18T00:26:06;6;5;
49778;PMS5003;36217;60.232;24.776;2022-12-18T00:28:34;6;6;
49778;PMS5003;36217;60.232;24.776;2022-12-18T00:31:01;9;6;
49778;PMS5003;36217;60.232;24.776;2022-12-18T00:33:29;11;9;
49778;PMS5003;36217;60.232;24.776;2022-12-18T00:36:00;8;6;
49778;PMS5003;36217;60.232;24.776;2022-12-18T00:38:27;6;6;
49778;PMS5003;36217;60.232;24.776;2022-12-18T00:40:55;10;7;
49778;PMS5003;36217;60.232;24.776;2022-12-18T00:43:22;6;6;
49778;PMS5003;36217;60.232;24.776;2022-12-18T00:45:49;11;9;
49778;PMS5003;36217;60.232;24.776;2022-12-18T00:48:16;5;5;
49778;PMS5003;36217;60.232;24.776;2022-12-18T00:50:44;6;6;
49778;PMS5003;36217;60.232;24.776;2022-12-18T00:53:11;6;6;
49778;PMS5003;36217;60.232;24.776;2022-12-18T00:55:38;5;3;
49778;PMS5003;36217;60.232;24.776;2022-12-18T00:58:06;7;6;
49778;PMS5003;36217;60.232;24.776;2022-12-18T01:00:33;9;7;
49778;PMS5003;36217;60.232;24.776;2022-12-18T01:03:00;5;5;
49778;PMS5003;36217;60.232;24.776;2022-12-18T01:05:27;7;7;
49778;PMS5003;36217;60.232;24.776;2022-12-18T01:07:55;6;6;
49778;PMS5003;36217;60.232;24.776;2022-12-18T01:10:22;6;5;
49778;PMS5003;36217;60.232;24.776;2022-12-18T01:12:51;7;5;
49778;PMS5003;36217;60.232;24.776;2022-12-18T01:15:18;5;5;
49778;PMS5003;36217;60.232;24.776;2022-12-18T01:17:45;3;3;
49778;PMS5003;36217;60.232;24.776;2022-12-18T01:20:13;6;6;
49778;PMS5003;36217;60.232;24.776;2022-12-18T01:22:40;5;5;
49778;PMS5003;36217;60.232;24.776;2022-12-18T01:25:08;9;8;
49778;PMS5003;36217;60.232;24.776;2022-12-18T01:27:35;9;6;
49778;PMS5003;36217;60.232;24.776;2022-12-18T01:30:02;6;6;
49778;PMS5003;36217;60.232;24.776;2022-12-18T01:32:30;9;5;
49778;PMS5003;36217;60.232;24.776;2022-12-18T01:34:58;10;9;
49778;PMS5003;36217;60.232;24.776;2022-12-18T01:37:26;5;5;
49778;PMS5003;36217;60.232;24.776;2022-12-18T01:39:53;6;6;
49778;PMS5003;36217;60.232;24.776;2022-12-18T01:42:20;7;6;
49778;PMS5003;36217;60.232;24.776;2022-12-18T01:44:53;3;3;
49778;PMS5003;36217;60.232;24.776;2022-12-18T01:47:23;6;5;
49778;PMS5003;36217;60.232;24.776;2022-12-18T01:49:53;9;7;
49778;PMS5003;36217;60.232;24.776;2022-12-18T01:52:22;7;6;
49778;PMS5003;36217;60.232;24.776;2022-12-18T01:54:52;7;7;
49778;PMS5003;36217;60.232;24.776;2022-12-18T01:57:20;11;6;
49778;PMS5003;36217;60.232;24.776;2022-12-18T01:59:51;6;6;
49778;PMS5003;36217;60.232;24.776;2022-12-18T02:02:23;7;3;
49778;PMS5003;36217;60.232;24.776;2022-12-18T02:04:50;7;7;
49778;PMS5003;36217;60.232;24.776;2022-12-18T02:07:20;10;6;
49778;PMS5003;36217;60.232;24.776;2022-12-18T02:09:54;10;9;
49778;PMS5003;36217;60.232;24.776;2022-12-18T02:12:27;7;5;
49778;PMS5003;36217;60.232;24.776;2022-12-18T02:15:04;7;5;
49778;PMS5003;36217;60.232;24.776;2022-12-18T02:17:36;7;6;
49778;PMS5003;36217;60.232;24.776;2022-12-18T02:20:09;10;6;
49778;PMS5003;36217;60.232;24.776;2022-12-18T02:22:42;6;5;
49778;PMS5003;36217;60.232;24.776;2022-12-18T02:25:21;6;6;
49778;PMS5003;36217;60.232;24.776;2022-12-18T02:27:58;9;7;
49778;PMS5003;36217;60.232;24.776;2022-12-18T02:30:29;11;7;
49778;PMS5003;36217;60.232;24.776;2022-12-18T02:33:00;5;3;
49778;PMS5003;36217;60.232;24.776;2022-12-18T02:35:31;5;5;
49778;PMS5003;36217;60.232;24.776;2022-12-18T02:38:00;14;11;
49778;PMS5003;36217;60.232;24.776;2022-12-18T02:40:28;6;6;
49778;PMS5003;36217;60.232;24.776;2022-12-18T02:43:01;6;6;
49778;PMS5003;36217;60.232;24.776;2022-12-18T02:45:29;9;7;
49778;PMS5003;36217;60.232;24.776;2022-12-18T02:47:57;6;6;
49778;PMS5003;36217;60.232;24.776;2022-12-18T02:50:26;10;9;
49778;PMS5003;36217;60.232;24.776;2022-12-18T02:53:03;3;3;
49778;PMS5003;36217;60.232;24.776;2022-12-18T02:55:39;6;6;
49778;PMS5003;36217;60.232;24.776;2022-12-18T02:58:17;7;5;
49778;PMS5003;36217;60.232;24.776;2022-12-18T03:00:48;9;7;
49778;PMS5003;36217;60.232;24.776;2022-12-18T03:03:22;6;6;
49778;PMS5003;36217;60.232;24.776;2022-12-18T03:05:56;5;5;
49778;PMS5003;36217;60.232;24.776;2022-12-18T03:08:28;10;5;
49778;PMS5003;36217;60.232;24.776;2022-12-18T03:11:00;6;5;
49778;PMS5003;36217;60.232;24.776;2022-12-18T03:13:31;3;3;
49778;PMS5003;36217;60.232;24.776;2022-12-18T03:16:02;6;6;
49778;PMS5003;36217;60.232;24.776;2022-12-18T03:18:35;6;5;
49778;PMS5003;36217;60.232;24.776;2022-12-18T03:21:08;5;3;
49778;PMS5003;36217;60.232;24.776;2022-12-18T03:23:40;6;5;
49778;PMS5003;36217;60.232;24.776;2022-12-18T03:26:11;6;6;
49778;PMS5003;36217;60.232;24.776;2022-12-18T03:28:42;6;6;
49778;PMS5003;36217;60.232;24.776;2022-12-18T03:31:12;10;9;
49778;PMS5003;36217;60.232;24.776;2022-12-18T03:33:41;7;6;
49778;PMS5003;36217;60.232;24.776;2022-12-18T03:36:12;7;7;
49778;PMS5003;36217;60.232;24.776;2022-12-18T03:38:39;5;5;
49778;PMS5003;36217;60.232;24.776;2022-12-18T03:41:08;3;3;
49778;PMS5003;36217;60.232;24.776;2022-12-18T03:43:44;7;6;
49778;PMS5003;36217;60.232;24.776;2022-12-18T03:46:21;13;6;
49778;PMS5003;36217;60.232;24.776;2022-12-18T03:48:57;9;6;
49778;PMS5003;36217;60.232;24.776;2022-12-18T03:51:36;5;5;
49778;PMS5003;36217;60.232;24.776;2022-12-18T03:54:09;11;11;
49778;PMS5003;36217;60.232;24.776;2022-12-18T03:56:40;3;3;
49778;PMS5003;36217;60.232;24.776;2022-12-18T03:59:11;5;5;
49778;PMS5003;36217;60.232;24.776;2022-12-18T04:01:43;3;3;
49778;PMS5003;36217;60.232;24.776;2022-12-18T04:04:14;5;5;
49778;PMS5003;36217;60.232;24.776;2022-12-18T04:06:43;3;3;
49778;PMS5003;36217;60.232;24.776;2022-12-18T04:09:12;9;6;
49778;PMS5003;36217;60.232;24.776;2022-12-18T04:11:39;5;5;
49778;PMS5003;36217;60.232;24.776;2022-12-18T04:14:07;5;5;
49778;PMS5003;36217;60.232;24.776;2022-12-18T04:16:34;2;2;
49778;PMS5003;36217;60.232;24.776;2022-12-18T04:19:02;6;6;
49778;PMS5003;36217;60.232;24.776;2022-12-18T04:21:29;5;5;
49778;PMS5003;36217;60.232;24.776;2022-12-18T04:23:56;7;3;
49778;PMS5003;36217;60.232;24.776;2022-12-18T04:26:23;7;7;
49778;PMS5003;36217;60.232;24.776;2022-12-18T04:28:51;7;6;
49778;PMS5003;36217;60.232;24.776;2022-12-18T04:31:18;3;3;
49778;PMS5003;36217;60.232;24.776;2022-12-18T04:33:45;6;6;
49778;PMS5003;36217;60.232;24.776;2022-12-18T04:36:12;3;3;
49778;PMS5003;36217;60.232;24.776;2022-12-18T04:38:39;5;5;
49778;PMS5003;36217;60.232;24.776;2022-12-18T04:41:07;9;7;
49778;PMS5003;36217;60.232;24.776;2022-12-18T04:43:34;7;6;
49778;PMS5003;36217;60.232;24.776;2022-12-18T04:46:02;5;5;
49778;PMS5003;36217;60.232;24.776;2022-12-18T04:48:30;6;3;
49778;PMS5003;36217;60.232;24.776;2022-12-18T04:50:57;7;7;
49778;PMS5003;36217;60.232;24.776;2022-12-18T04:53:25;7;7;
49778;PMS5003;36217;60.232;24.776;2022-12-18T04:56:01;5;3;
49778;PMS5003;36217;60.232;24.776;2022-12-18T04:58:30;6;3;
49778;PMS5003;36217;60.232;24.776;2022-12-18T05:00:57;5;5;
49778;PMS5003;36217;60.232;24.776;2022-12-18T05:03:24;6;6;
49778;PMS5003;36217;60.232;24.776;2022-12-18T05:05:52;6;6;
49778;PMS5003;36217;60.232;24.776;2022-12-18T05:08:19;7;5;
49778;PMS5003;36217;60.232;24.776;2022-12-18T05:10:46;5;3;
49778;PMS5003;36217;60.232;24.776;2022-12-18T05:13:13;6;5;
49778;PMS5003;36217;60.232;24.776;2022-12-18T05:15:41;5;5;
49778;PMS5003;36217;60.232;24.776;2022-12-18T05:18:08;13;11;
49778;PMS5003;36217;60.232;24.776;2022-12-18T05:20:35;7;5;
49778;PMS5003;36217;60.232;24.776;2022-12-18T05:23:02;9;7;
49778;PMS5003;36217;60.232;24.776;2022-12-18T05:25:30;7;3;
49778;PMS5003;36217;60.232;24.776;2022-12-18T05:27:57;10;6;
49778;PMS5003;36217;60.232;24.776;2022-12-18T05:30:24;7;6;
49778;PMS5003;36217;60.232;24.776;2022-12-18T05:32:52;9;5;
49778;PMS5003;36217;60.232;24.776;2022-12-18T05:35:19;6;6;
49778;PMS5003;36217;60.232;24.776;2022-12-18T05:37:45;6;6;
49778;PMS5003;36217;60.232;24.776;2022-12-18T05:40:13;6;5;
49778;PMS5003;36217;60.232;24.776;2022-12-18T05:42:40;10;5;
49778;PMS5003;36217;60.232;24.776;2022-12-18T05:45:07;6;3;
49778;PMS5003;36217;60.232;24.776;2022-12-18T05:47:35;5;5;
49778;PMS5003;36217;60.232;24.776;2022-12-18T05:50:03;3;3;
49778;PMS5003;36217;60.232;24.776;2022-12-18T05:52:31;11;6;
49778;PMS5003;36217;60.232;24.776;2022-12-18T05:54:58;5;5;
49778;PMS5003;36217;60.232;24.776;2022-12-18T05:57:25;9;5;
49778;PMS5003;36217;60.232;24.776;2022-12-18T05:59:52;10;5;
49778;PMS5003;36217;60.232;24.776;2022-12-18T06:02:20;10;7;
49778;PMS5003;36217;60.232;24.776;2022-12-18T06:04:47;7;6;
49778;PMS5003;36217;60.232;24.776;2022-12-18T06:07:14;6;5;
49778;PMS5003;36217;60.232;24.776;2022-12-18T06:09:41;7;5;
49778;PMS5003;36217;60.232;24.776;2022-12-18T06:12:08;5;5;
49778;PMS5003;36217;60.232;24.776;2022-12-18T06:14:35;6;6;
49778;PMS5003;36217;60.232;24.776;2022-12-18T06:17:03;3;3;
49778;PMS5003;36217;60.232;24.776;2022-12-18T06:19:30;9;5;
49778;PMS5003;36217;60.232;24.776;2022-12-18T06:21:57;6;6;
49778;PMS5003;36217;60.232;24.776;2022-12-18T06:24:24;5;5;
49778;PMS5003;36217;60.232;24.776;2022-12-18T06:26:51;6;3;
49778;PMS5003;36217;60.232;24.776;2022-12-18T06:29:19;11;7;
49778;PMS5003;36217;60.232;24.776;2022-12-18T06:31:46;7;7;
49778;PMS5003;36217;60.232;24.776;2022-12-18T06:34:13;9;6;
49778;PMS5003;36217;60.232;24.776;2022-12-18T06:36:41;5;5;
49778;PMS5003;36217;60.232;24.776;2022-12-18T06:39:08;3;2;
49778;PMS5003;36217;60.232;24.776;2022-12-18T06:41:35;5;5;
49778;PMS5003;36217;60.232;24.776;2022-12-18T06:44:03;6;5;
49778;PMS5003;36217;60.232;24.776;2022-12-18T06:46:30;5;3;
49778;PMS5003;36217;60.232;24.776;2022-12-18T06:48:57;5;5;
49778;PMS5003;36217;60.232;24.776;2022-12-18T06:51:24;7;5;
49778;PMS5003;36217;60.232;24.776;2022-12-18T06:53:52;11;6;
49778;PMS5003;36217;60.232;24.776;2022-12-18T06:56:20;7;7;
49778;PMS5003;36217;60.232;24.776;2022-12-18T06:58:47;3;3;
49778;PMS5003;36217;60.232;24.776;2022-12-18T07:01:17;7;5;
49778;PMS5003;36217;60.232;24.776;2022-12-18T07:03:44;5;5;
49778;PMS5003;36217;60.232;24.776;2022-12-18T07:06:13;7;7;
49778;PMS5003;36217;60.232;24.776;2022-12-18T07:08:41;6;5;
49778;PMS5003;36217;60.232;24.776;2022-12-18T07:11:08;5;5;
49778;PMS5003;36217;60.232;24.776;2022-12-18T07:13:35;9;5;
49778;PMS5003;36217;60.232;24.776;2022-12-18T07:16:03;9;6;
49778;PMS5003;36217;60.232;24.776;2022-12-18T07:18:32;12;9;
49778;PMS5003;36217;60.232;24.776;2022-12-18T07:21:02;6;6;
49778;PMS5003;36217;60.232;24.776;2022-12-18T07:23:29;7;6;
49778;PMS5003;36217;60.232;24.776;2022-12-18T07:26:00;11;10;
49778;PMS5003;36217;60.232;24.776;2022-12-18T07:28:27;9;5;
49778;PMS5003;36217;60.232;24.776;2022-12-18T07:30:55;5;5;
49778;PMS5003;36217;60.232;24.776;2022-12-18T07:33:22;7;5;
49778;PMS5003;36217;60.232;24.776;2022-12-18T07:35:49;6;6;
49778;PMS5003;36217;60.232;24.776;2022-12-18T07:38:16;9;7;
49778;PMS5003;36217;60.232;24.776;2022-12-18T07:40:44;7;7;
49778;PMS5003;36217;60.232;24.776;2022-12-18T07:43:11;7;6;
49778;PMS5003;36217;60.232;24.776;2022-12-18T07:45:38;9;9;
49778;PMS5003;36217;60.232;24.776;2022-12-18T07:48:05;10;10;
49778;PMS5003;36217;60.232;24.776;2022-12-18T07:50:33;6;6;
49778;PMS5003;36217;60.232;24.776;2022-12-18T07:53:00;16;7;
49778;PMS5003;36217;60.232;24.776;2022-12-18T07:55:27;10;9;
49778;PMS5003;36217;60.232;24.776;2022-12-18T07:57:54;10;7;
49778;PMS5003;36217;60.232;24.776;2022-12-18T08:00:22;12;7;
49778;PMS5003;36217;60.232;24.776;2022-12-18T08:02:49;14;10;
49778;PMS5003;36217;60.232;24.776;2022-12-18T08:05:16;3;3;
49778;PMS5003;36217;60.232;24.776;2022-12-18T08:07:43;7;6;
49778;PMS5003;36217;60.232;24.776;2022-12-18T08:10:10;6;6;
49778;PMS5003;36217;60.232;24.776;2022-12-18T08:12:38;7;5;
49778;PMS5003;36217;60.232;24.776;2022-12-18T08:15:05;12;10;
49778;PMS5003;36217;60.232;24.776;2022-12-18T08:17:33;6;5;
49778;PMS5003;36217;60.232;24.776;2022-12-18T08:20:00;6;6;
49778;PMS5003;36217;60.232;24.776;2022-12-18T08:22:27;9;6;
49778;PMS5003;36217;60.232;24.776;2022-12-18T08:24:54;7;6;
49778;PMS5003;36217;60.232;24.776;2022-12-18T08:27:21;5;5;
49778;PMS5003;36217;60.232;24.776;2022-12-18T08:29:48;7;6;
49778;PMS5003;36217;60.232;24.776;2022-12-18T08:32:16;6;6;
49778;PMS5003;36217;60.232;24.776;2022-12-18T08:34:43;6;5;
49778;PMS5003;36217;60.232;24.776;2022-12-18T08:37:10;3;3;
49778;PMS5003;36217;60.232;24.776;2022-12-18T08:39:37;6;6;
49778;PMS5003;36217;60.232;24.776;2022-12-18T08:42:04;6;3;
49778;PMS5003;36217;60.232;24.776;2022-12-18T08:44:32;3;3;
49778;PMS5003;36217;60.232;24.776;2022-12-18T08:46:59;6;6;
49778;PMS5003;36217;60.232;24.776;2022-12-18T08:49:26;6;6;
49778;PMS5003;36217;60.232;24.776;2022-12-18T08:51:54;10;6;
49778;PMS5003;36217;60.232;24.776;2022-12-18T08:54:21;5;5;
49778;PMS5003;36217;60.232;24.776;2022-12-18T08:56:48;6;6;
49778;PMS5003;36217;60.232;24.776;2022-12-18T08:59:15;6;6;
49778;PMS5003;36217;60.232;24.776;2022-12-18T09:01:43;6;6;
49778;PMS5003;36217;60.232;24.776;2022-12-18T09:04:11;6;5;
49778;PMS5003;36217;60.232;24.776;2022-12-18T09:06:39;3;3;
49778;PMS5003;36217;60.232;24.776;2022-12-18T09:09:06;2;2;
49778;PMS5003;36217;60.232;24.776;2022-12-18T09:11:33;6;6;
49778;PMS5003;36217;60.232;24.776;2022-12-18T09:14:00;5;5;
49778;PMS5003;36217;60.232;24.776;2022-12-18T09:16:29;6;6;
49778;PMS5003;36217;60.232;24.776;2022-12-18T09:18:57;3;3;
49778;PMS5003;36217;60.232;24.776;2022-12-18T09:21:25;5;5;
49778;PMS5003;36217;60.232;24.776;2022-12-18T09:23:54;3;3;
49778;PMS5003;36217;60.232;24.776;2022-12-18T09:26:22;10;7;
49778;PMS5003;36217;60.232;24.776;2022-12-18T09:28:51;7;7;
49778;PMS5003;36217;60.232;24.776;2022-12-18T09:31:19;7;6;
49778;PMS5003;36217;60.232;24.776;2022-12-18T09:33:48;7;5;
49778;PMS5003;36217;60.232;24.776;2022-12-18T09:36:15;6;6;
49778;PMS5003;36217;60.232;24.776;2022-12-18T09:38:44;6;6;
49778;PMS5003;36217;60.232;24.776;2022-12-18T09:41:17;10;10;
49778;PMS5003;36217;60.232;24.776;2022-12-18T09:43:56;8;5;
49778;PMS5003;36217;60.232;24.776;2022-12-18T09:46:27;7;6;
49778;PMS5003;36217;60.232;24.776;2022-12-18T09:48:57;5;5;
49778;PMS5003;36217;60.232;24.776;2022-12-18T09:51:28;6;6;
49778;PMS5003;36217;60.232;24.776;2022-12-18T09:54:02;7;7;
49778;PMS5003;36217;60.232;24.776;2022-12-18T09:56:35;6;6;
49778;PMS5003;36217;60.232;24.776;2022-12-18T09:59:13;5;5;
49778;PMS5003;36217;60.232;24.776;2022-12-18T10:01:47;8;7;
49778;PMS5003;36217;60.232;24.776;2022-12-18T10:04:14;6;6;
49778;PMS5003;36217;60.232;24.776;2022-12-18T10:06:43;10;6;
49778;PMS5003;36217;60.232;24.776;2022-12-18T10:09:19;8;7;
49778;PMS5003;36217;60.232;24.776;2022-12-18T10:11:55;6;6;
49778;PMS5003;36217;60.232;24.776;2022-12-18T10:14:34;6;5;
49778;PMS5003;36217;60.232;24.776;2022-12-18T10:17:09;7;7;
49778;PMS5003;36217;60.232;24.776;2022-12-18T10:19:45;8;8;
49778;PMS5003;36217;60.232;24.776;2022-12-18T10:22:20;11;7;
49778;PMS5003;36217;60.232;24.776;2022-12-18T10:24:53;7;7;
49778;PMS5003;36217;60.232;24.776;2022-12-18T10:27:26;7;7;
49778;PMS5003;36217;60.232;24.776;2022-12-18T10:29:54;11;7;
49778;PMS5003;36217;60.232;24.776;2022-12-18T10:32:22;7;6;
49778;PMS5003;36217;60.232;24.776;2022-12-18T10:34:52;5;5;
49778;PMS5003;36217;60.232;24.776;2022-12-18T10:37:22;8;6;
49778;PMS5003;36217;60.232;24.776;2022-12-18T10:40:06;6;6;
49778;PMS5003;36217;60.232;24.776;2022-12-18T10:42:36;11;5;
49778;PMS5003;36217;60.232;24.776;2022-12-18T10:45:03;8;7;
49778;PMS5003;36217;60.232;24.776;2022-12-18T10:47:35;7;7;
49778;PMS5003;36217;60.232;24.776;2022-12-18T10:50:02;6;6;
49778;PMS5003;36217;60.232;24.776;2022-12-18T10:52:30;7;7;
49778;PMS5003;36217;60.232;24.776;2022-12-18T10:54:58;8;6;
49778;PMS5003;36217;60.232;24.776;2022-12-18T10:57:32;8;7;
49778;PMS5003;36217;60.232;24.776;2022-12-18T11:00:20;12;7;
49778;PMS5003;36217;60.232;24.776;2022-12-18T11:02:50;7;7;
49778;PMS5003;36217;60.232;24.776;2022-12-18T11:05:23;10;6;
49778;PMS5003;36217;60.232;24.776;2022-12-18T11:07:52;6;6;
49778;PMS5003;36217;60.232;24.776;2022-12-18T11:10:20;8;7;
49778;PMS5003;36217;60.232;24.776;2022-12-18T11:12:48;5;5;
49778;PMS5003;36217;60.232;24.776;2022-12-18T11:15:15;14;14;
49778;PMS5003;36217;60.232;24.776;2022-12-18T11:17:45;11;10;
49778;PMS5003;36217;60.232;24.776;2022-12-18T11:20:19;12;11;
49778;PMS5003;36217;60.232;24.776;2022-12-18T11:22:54;10;8;
49778;PMS5003;36217;60.232;24.776;2022-12-18T11:25:23;8;8;
49778;PMS5003;36217;60.232;24.776;2022-12-18T11:27:51;11;8;
49778;PMS5003;36217;60.232;24.776;2022-12-18T11:30:21;8;6;
49778;PMS5003;36217;60.232;24.776;2022-12-18T11:32:51;10;6;
49778;PMS5003;36217;60.232;24.776;2022-12-18T11:35:24;8;8;
49778;PMS5003;36217;60.232;24.776;2022-12-18T11:37:59;12;11;
49778;PMS5003;36217;60.232;24.776;2022-12-18T11:40:33;6;6;
49778;PMS5003;36217;60.232;24.776;2022-12-18T11:43:04;17;10;
49778;PMS5003;36217;60.232;24.776;2022-12-18T11:45:38;12;10;
49778;PMS5003;36217;60.232;24.776;2022-12-18T11:48:12;12;8;
49778;PMS5003;36217;60.232;24.776;2022-12-18T11:50:44;11;8;
49778;PMS5003;36217;60.232;24.776;2022-12-18T11:53:15;10;6;
49778;PMS5003;36217;60.232;24.776;2022-12-18T11:55:46;8;8;
49778;PMS5003;36217;60.232;24.776;2022-12-18T11:58:28;7;7;
49778;PMS5003;36217;60.232;24.776;2022-12-18T12:01:10;11;8;
49778;PMS5003;36217;60.232;24.776;2022-12-18T12:03:48;11;8;
49778;PMS5003;36217;60.232;24.776;2022-12-18T12:06:29;12;11;
49778;PMS5003;36217;60.232;24.776;2022-12-18T12:09:05;12;11;
49778;PMS5003;36217;60.232;24.776;2022-12-18T12:11:42;8;8;
49778;PMS5003;36217;60.232;24.776;2022-12-18T12:14:24;11;11;
49778;PMS5003;36217;60.232;24.776;2022-12-18T12:17:01;15;8;
49778;PMS5003;36217;60.232;24.776;2022-12-18T12:19:39;10;7;
49778;PMS5003;36217;60.232;24.776;2022-12-18T12:22:18;8;7;
49778;PMS5003;36217;60.232;24.776;2022-12-18T12:25:07;8;7;
49778;PMS5003;36217;60.232;24.776;2022-12-18T12:27:46;10;10;
49778;PMS5003;36217;60.232;24.776;2022-12-18T12:30:21;12;8;
49778;PMS5003;36217;60.232;24.776;2022-12-18T12:33:01;12;10;
49778;PMS5003;36217;60.232;24.776;2022-12-18T12:35:37;13;11;
49778;PMS5003;36217;60.232;24.776;2022-12-18T12:38:13;16;12;
49778;PMS5003;36217;60.232;24.776;2022-12-18T12:40:46;12;11;
49778;PMS5003;36217;60.232;24.776;2022-12-18T12:43:23;12;10;
49778;PMS5003;36217;60.232;24.776;2022-12-18T12:45:58;13;13;
49778;PMS5003;36217;60.232;24.776;2022-12-18T12:48:33;12;11;
49778;PMS5003;36217;60.232;24.776;2022-12-18T12:51:07;12;12;
49778;PMS5003;36217;60.232;24.776;2022-12-18T12:53:38;16;13;
49778;PMS5003;36217;60.232;24.776;2022-12-18T12:56:07;18;11;
49778;PMS5003;36217;60.232;24.776;2022-12-18T12:58:38;13;13;
49778;PMS5003;36217;60.232;24.776;2022-12-18T13:01:16;11;11;
49778;PMS5003;36217;60.232;24.776;2022-12-18T13:03:52;12;12;
49778;PMS5003;36217;60.232;24.776;2022-12-18T13:06:30;18;12;
49778;PMS5003;36217;60.232;24.776;2022-12-18T13:09:04;13;12;
49778;PMS5003;36217;60.232;24.776;2022-12-18T13:11:34;16;13;
49778;PMS5003;36217;60.232;24.776;2022-12-18T13:14:02;22;15;
49778;PMS5003;36217;60.232;24.776;2022-12-18T13:16:29;11;11;
49778;PMS5003;36217;60.232;24.776;2022-12-18T13:18:56;16;12;
49778;PMS5003;36217;60.232;24.776;2022-12-18T13:21:24;13;12;
49778;PMS5003;36217;60.232;24.776;2022-12-18T13:23:54;11;11;
49778;PMS5003;36217;60.232;24.776;2022-12-18T13:26:29;16;15;
49778;PMS5003;36217;60.232;24.776;2022-12-18T13:28:58;15;12;
49778;PMS5003;36217;60.232;24.776;2022-12-18T13:31:59;13;13;
49778;PMS5003;36217;60.232;24.776;2022-12-18T13:34:27;13;12;
49778;PMS5003;36217;60.232;24.776;2022-12-18T13:36:56;23;18;
49778;PMS5003;36217;60.232;24.776;2022-12-18T13:40:24;10;10;
49778;PMS5003;36217;60.232;24.776;2022-12-18T13:43:23;15;11;
49778;PMS5003;36217;60.232;24.776;2022-12-18T13:46:04;16;12;
49778;PMS5003;36217;60.232;24.776;2022-12-18T13:48:47;18;13;
49778;PMS5003;36217;60.232;24.776;2022-12-18T13:51:17;10;10;
49778;PMS5003;36217;60.232;24.776;2022-12-18T13:53:49;10;10;
49778;PMS5003;36217;60.232;24.776;2022-12-18T13:56:18;15;13;
49778;PMS5003;36217;60.232;24.776;2022-12-18T13:59:22;12;12;
49778;PMS5003;36217;60.232;24.776;2022-12-18T14:01:52;13;12;
49778;PMS5003;36217;60.232;24.776;2022-12-18T14:04:22;10;10;
49778;PMS5003;36217;60.232;24.776;2022-12-18T14:06:52;10;10;
49778;PMS5003;36217;60.232;24.776;2022-12-18T14:09:24;12;12;
49778;PMS5003;36217;60.232;24.776;2022-12-18T14:11:53;10;10;
49778;PMS5003;36217;60.232;24.776;2022-12-18T14:14:22;11;11;
49778;PMS5003;36217;60.232;24.776;2022-12-18T14:16:49;10;10;
49778;PMS5003;36217;60.232;24.776;2022-12-18T14:19:17;8;8;
49778;PMS5003;36217;60.232;24.776;2022-12-18T14:21:45;10;10;
49778;PMS5003;36217;60.232;24.776;2022-12-18T14:24:14;11;8;
49778;PMS5003;36217;60.232;24.776;2022-12-18T14:26:42;7;7;
49778;PMS5003;36217;60.232;24.776;2022-12-18T14:29:26;10;10;
49778;PMS5003;36217;60.232;24.776;2022-12-18T14:32:11;10;7;
49778;PMS5003;36217;60.232;24.776;2022-12-18T14:34:40;12;8;
49778;PMS5003;36217;60.232;24.776;2022-12-18T14:37:09;8;8;
49778;PMS5003;36217;60.232;24.776;2022-12-18T14:39:37;10;7;
49778;PMS5003;36217;60.232;24.776;2022-12-18T14:42:25;11;11;
49778;PMS5003;36217;60.232;24.776;2022-12-18T14:45:18;8;7;
49778;PMS5003;36217;60.232;24.776;2022-12-18T14:47:59;10;7;
49778;PMS5003;36217;60.232;24.776;2022-12-18T14:50:26;7;7;
49778;PMS5003;36217;60.232;24.776;2022-12-18T14:52:53;8;7;
49778;PMS5003;36217;60.232;24.776;2022-12-18T14:55:20;11;8;
49778;PMS5003;36217;60.232;24.776;2022-12-18T14:57:49;7;7;
49778;PMS5003;36217;60.232;24.776;2022-12-18T15:00:18;11;8;
49778;PMS5003;36217;60.232;24.776;2022-12-18T15:02:47;10;10;
49778;PMS5003;36217;60.232;24.776;2022-12-18T15:05:18;15;12;
49778;PMS5003;36217;60.232;24.776;2022-12-18T15:07:47;12;12;
49778;PMS5003;36217;60.232;24.776;2022-12-18T15:10:16;10;10;
49778;PMS5003;36217;60.232;24.776;2022-12-18T15:12:44;10;10;
49778;PMS5003;36217;60.232;24.776;2022-12-18T15:16:05;17;11;
49778;PMS5003;36217;60.232;24.776;2022-12-18T15:18:41;10;8;
49778;PMS5003;36217;60.232;24.776;2022-12-18T15:21:10;10;8;
49778;PMS5003;36217;60.232;24.776;2022-12-18T15:23:46;11;10;
49778;PMS5003;36217;60.232;24.776;2022-12-18T15:26:14;12;11;
49778;PMS5003;36217;60.232;24.776;2022-12-18T15:28:54;11;11;
49778;PMS5003;36217;60.232;24.776;2022-12-18T15:31:24;8;8;
49778;PMS5003;36217;60.232;24.776;2022-12-18T15:34:08;10;8;
49778;PMS5003;36217;60.232;24.776;2022-12-18T15:36:38;17;11;
49778;PMS5003;36217;60.232;24.776;2022-12-18T15:39:05;11;11;
49778;PMS5003;36217;60.232;24.776;2022-12-18T15:41:32;12;11;
49778;PMS5003;36217;60.232;24.776;2022-12-18T15:44:01;16;13;
49778;PMS5003;36217;60.232;24.776;2022-12-18T15:46:30;17;16;
49778;PMS5003;36217;60.232;24.776;2022-12-18T15:48:57;11;8;
49778;PMS5003;36217;60.232;24.776;2022-12-18T15:51:26;13;12;
49778;PMS5003;36217;60.232;24.776;2022-12-18T15:53:58;11;10;
49778;PMS5003;36217;60.232;24.776;2022-12-18T15:56:26;11;10;
49778;PMS5003;36217;60.232;24.776;2022-12-18T15:58:53;16;16;
49778;PMS5003;36217;60.232;24.776;2022-12-18T16:01:20;12;10;
49778;PMS5003;36217;60.232;24.776;2022-12-18T16:03:49;15;13;
49778;PMS5003;36217;60.232;24.776;2022-12-18T16:06:16;12;10;
49778;PMS5003;36217;60.232;24.776;2022-12-18T16:08:43;10;10;
49778;PMS5003;36217;60.232;24.776;2022-12-18T16:11:12;12;11;
49778;PMS5003;36217;60.232;24.776;2022-12-18T16:14:04;13;10;
49778;PMS5003;36217;60.232;24.776;2022-12-18T16:16:32;12;12;
49778;PMS5003;36217;60.232;24.776;2022-12-18T16:18:59;10;10;
49778;PMS5003;36217;60.232;24.776;2022-12-18T16:21:26;13;10;
49778;PMS5003;36217;60.232;24.776;2022-12-18T16:23:53;10;10;
49778;PMS5003;36217;60.232;24.776;2022-12-18T16:26:20;13;8;
49778;PMS5003;36217;60.232;24.776;2022-12-18T16:28:47;11;11;
49778;PMS5003;36217;60.232;24.776;2022-12-18T16:31:15;10;8;
49778;PMS5003;36217;60.232;24.776;2022-12-18T16:33:42;13;11;
49778;PMS5003;36217;60.232;24.776;2022-12-18T16:36:09;13;10;
49778;PMS5003;36217;60.232;24.776;2022-12-18T16:38:36;13;10;
49778;PMS5003;36217;60.232;24.776;2022-12-18T16:41:04;18;18;
49778;PMS5003;36217;60.232;24.776;2022-12-18T16:43:44;17;16;
49778;PMS5003;36217;60.232;24.776;2022-12-18T16:46:11;23;20;